createdAt,value
2023-07-24T00:00:00.219Z,5.95
2023-07-24T00:02:28.574Z,5.82
2023-07-24T00:04:56.600Z,6.30
2023-07-24T00:07:24.842Z,5.30
2023-07-24T00:09:53.812Z,6.85
2023-07-24T00:12:21.927Z,6.93
2023-07-24T00:14:50.204Z,6.43
2023-07-24T00:17:19.772Z,7.13
2023-07-24T00:19:48.006Z,7.28
2023-07-24T00:22:16.467Z,7.38
2023-07-24T00:24:44.893Z,6.43
2023-07-24T00:27:14.110Z,7.25
2023-07-24T00:29:42.445Z,6.65
2023-07-24T00:32:11.260Z,6.50
2023-07-24T00:34:40.750Z,6.18
2023-07-24T00:37:09.705Z,6.05
2023-07-24T00:39:37.828Z,6.55
2023-07-24T00:42:06.380Z,7.38
2023-07-24T00:44:34.472Z,7.22
2023-07-24T00:47:02.970Z,6.70
2023-07-24T00:49:31.603Z,6.32
2023-07-24T00:52:01.460Z,7.55
2023-07-24T00:54:35.060Z,6.53
2023-07-24T00:57:04.019Z,7.03
2023-07-24T00:59:32.675Z,7.38
2023-07-24T01:02:03.163Z,8.00
2023-07-24T01:04:31.516Z,7.45
2023-07-24T01:07:01.623Z,8.38
2023-07-24T01:09:30.029Z,7.93
2023-07-24T01:12:05.292Z,7.60
2023-07-24T01:14:43.533Z,7.25
2023-07-24T01:17:13.710Z,8.45
2023-07-24T01:19:48.961Z,7.82
2023-07-24T01:22:39.353Z,8.35
2023-07-24T01:25:13.587Z,9.05
2023-07-24T01:27:48.050Z,7.05
2023-07-24T01:30:19.242Z,8.40
2023-07-24T01:32:48.373Z,7.95
2023-07-24T01:35:17.142Z,8.18
2023-07-24T01:37:46.250Z,8.02
2023-07-24T01:40:15.862Z,7.72
2023-07-24T01:42:44.631Z,7.45
2023-07-24T01:45:14.229Z,7.25
2023-07-24T01:47:42.387Z,7.55
2023-07-24T01:50:11.013Z,8.32
2023-07-24T01:52:39.154Z,8.35
2023-07-24T01:55:08.262Z,7.30
2023-07-24T01:57:36.600Z,8.43
2023-07-24T02:00:05.872Z,8.00
2023-07-24T02:02:35.820Z,7.70
2023-07-24T02:05:04.193Z,7.97
2023-07-24T02:07:32.476Z,8.20
2023-07-24T02:10:00.948Z,7.50
2023-07-24T02:12:29.339Z,8.20
2023-07-24T02:14:58.540Z,7.80
2023-07-24T02:17:26.877Z,9.05
2023-07-24T02:19:56.723Z,7.63
2023-07-24T02:22:25.312Z,8.30
2023-07-24T02:24:53.825Z,9.15
2023-07-24T02:27:29.726Z,8.18
2023-07-24T02:29:58.134Z,8.80
2023-07-24T02:32:26.315Z,9.43
2023-07-24T02:34:56.449Z,8.38
2023-07-24T02:37:24.900Z,8.18
2023-07-24T02:39:54.372Z,7.78
2023-07-24T02:42:22.648Z,8.50
2023-07-24T02:44:51.398Z,8.40
2023-07-24T02:47:19.694Z,9.07
2023-07-24T02:49:48.210Z,8.63
2023-07-24T02:52:18.219Z,8.00
2023-07-24T02:54:47.382Z,8.75
2023-07-24T02:57:16.213Z,8.90
2023-07-24T02:59:44.800Z,8.75
2023-07-24T03:02:13.338Z,9.77
2023-07-24T03:04:41.813Z,8.85
2023-07-24T03:07:10.059Z,8.57
2023-07-24T03:09:39.947Z,8.30
2023-07-24T03:12:09.099Z,8.55
2023-07-24T03:14:37.573Z,8.50
2023-07-24T03:17:06.259Z,8.25
2023-07-24T03:19:35.359Z,9.25
2023-07-24T03:22:04.021Z,8.95
2023-07-24T03:24:34.000Z,9.38
2023-07-24T03:27:03.803Z,8.48
2023-07-24T03:29:32.396Z,9.07
2023-07-24T03:32:01.051Z,9.43
2023-07-24T03:34:29.173Z,10.02
2023-07-24T03:36:57.414Z,9.75
2023-07-24T03:39:26.039Z,8.40
2023-07-24T03:41:54.427Z,10.20
2023-07-24T03:44:24.364Z,9.77
2023-07-24T03:46:52.648Z,8.40
2023-07-24T03:49:21.208Z,9.35
2023-07-24T03:51:49.889Z,8.15
2023-07-24T03:54:18.182Z,8.73
2023-07-24T03:56:46.508Z,8.52
2023-07-24T03:59:14.756Z,9.27
2023-07-24T04:01:44.250Z,9.13
2023-07-24T04:04:12.750Z,8.38
2023-07-24T04:06:41.008Z,8.88
2023-07-24T04:09:09.361Z,8.98
2023-07-24T04:11:39.464Z,8.57
2023-07-24T04:14:07.775Z,8.95
2023-07-24T04:16:36.038Z,8.93
2023-07-24T04:19:06.717Z,9.68
2023-07-24T04:21:34.976Z,8.88
2023-07-24T04:24:03.411Z,9.77
2023-07-24T04:26:31.805Z,9.13
2023-07-24T04:29:00.306Z,8.38
2023-07-24T04:31:28.586Z,8.90
2023-07-24T04:33:56.930Z,8.27
2023-07-24T04:36:28.396Z,9.40
2023-07-24T04:38:57.120Z,9.18
2023-07-24T04:41:25.763Z,9.73
2023-07-24T04:43:54.411Z,8.50
2023-07-24T04:46:22.500Z,8.52
2023-07-24T04:48:51.005Z,9.57
2023-07-24T04:51:19.899Z,9.20
2023-07-24T04:53:49.625Z,9.25
2023-07-24T04:56:17.922Z,9.50
2023-07-24T04:58:46.155Z,9.77
2023-07-24T05:01:14.276Z,8.73
2023-07-24T05:03:42.746Z,8.20
2023-07-24T05:06:11.361Z,8.35
2023-07-24T05:08:39.741Z,9.18
2023-07-24T05:11:10.058Z,8.90
2023-07-24T05:13:38.272Z,8.65
2023-07-24T05:16:07.030Z,9.27
2023-07-24T05:18:35.213Z,9.55
2023-07-24T05:21:03.385Z,9.02
2023-07-24T05:23:31.483Z,8.02
2023-07-24T05:26:00.587Z,8.48
2023-07-24T05:28:30.577Z,8.75
2023-07-24T05:31:02.264Z,8.05
2023-07-24T05:33:30.563Z,7.53
2023-07-24T05:36:01.360Z,7.70
2023-07-24T05:38:30.159Z,8.10
2023-07-24T05:40:58.970Z,8.73
2023-07-24T05:43:28.830Z,8.02
2023-07-24T05:46:00.285Z,8.32
2023-07-24T05:48:29.362Z,7.60
2023-07-24T05:50:58.228Z,8.20
2023-07-24T05:53:28.634Z,8.52
2023-07-24T05:56:01.744Z,8.48
2023-07-24T05:58:30.366Z,8.20
2023-07-24T06:01:01.146Z,9.40
2023-07-24T06:03:29.720Z,8.40
2023-07-24T06:05:58.602Z,9.23
2023-07-24T06:08:27.647Z,8.45
2023-07-24T06:10:56.592Z,8.65
2023-07-24T06:13:24.955Z,9.93
2023-07-24T06:15:57.717Z,8.82
2023-07-24T06:18:28.504Z,6.97
2023-07-24T06:20:57.145Z,7.57
2023-07-24T06:23:25.908Z,8.15
2023-07-24T06:25:55.149Z,8.45
2023-07-24T06:28:24.443Z,7.43
2023-07-24T06:30:55.599Z,8.38
2023-07-24T06:33:24.832Z,8.50
2023-07-24T06:35:55.912Z,7.72
2023-07-24T06:38:26.918Z,8.43
2023-07-24T06:40:55.705Z,7.32
2023-07-24T06:43:26.121Z,7.32
2023-07-24T06:45:54.794Z,6.75
2023-07-24T06:48:23.517Z,7.53
2023-07-24T06:50:55.593Z,7.47
2023-07-24T06:53:24.348Z,7.57
2023-07-24T06:55:52.875Z,7.88
2023-07-24T06:58:21.886Z,9.65
2023-07-24T07:00:52.098Z,8.10
2023-07-24T07:03:21.121Z,7.47
2023-07-24T07:05:49.689Z,8.50
2023-07-24T07:08:19.881Z,7.00
2023-07-24T07:10:49.484Z,7.65
2023-07-24T07:13:18.004Z,8.23
2023-07-24T07:15:46.400Z,8.25
2023-07-24T07:18:16.245Z,8.10
2023-07-24T07:20:48.024Z,8.05
2023-07-24T07:23:17.173Z,8.48
2023-07-24T07:25:47.973Z,7.20
2023-07-24T07:28:16.992Z,7.68
2023-07-24T07:30:46.288Z,7.53
2023-07-24T07:33:15.686Z,8.32
2023-07-24T07:35:44.619Z,7.15
2023-07-24T07:38:13.040Z,8.30
2023-07-24T07:40:41.507Z,8.85
2023-07-24T07:43:11.699Z,7.45
2023-07-24T07:45:40.044Z,7.50
2023-07-24T07:48:08.871Z,8.43
2023-07-24T07:50:38.274Z,7.78
2023-07-24T07:53:06.992Z,7.82
2023-07-24T07:55:35.445Z,7.50
2023-07-24T07:58:03.911Z,7.35
2023-07-24T08:00:34.071Z,7.78
2023-07-24T08:03:02.518Z,8.50
2023-07-24T08:05:31.054Z,7.93
2023-07-24T08:07:59.716Z,7.40
2023-07-24T08:10:27.854Z,7.20
2023-07-24T08:12:56.800Z,7.50
2023-07-24T08:15:25.000Z,7.43
2023-07-24T08:17:55.679Z,8.15
2023-07-24T08:20:24.370Z,8.65
2023-07-24T08:22:52.896Z,7.65
2023-07-24T08:25:22.332Z,8.25
2023-07-24T08:28:04.654Z,8.13
2023-07-24T08:30:34.945Z,8.35
2023-07-24T08:33:06.446Z,8.48
2023-07-24T08:35:35.336Z,7.70
2023-07-24T08:38:03.897Z,8.52
2023-07-24T08:40:32.661Z,8.43
2023-07-24T08:43:01.146Z,8.05
2023-07-24T08:45:29.881Z,9.05
2023-07-24T08:47:59.795Z,7.93
2023-07-24T08:50:29.833Z,8.40
2023-07-24T08:52:59.388Z,9.10
2023-07-24T08:55:28.707Z,8.13
2023-07-24T08:57:57.956Z,7.90
2023-07-24T09:00:30.601Z,7.70
2023-07-24T09:02:58.997Z,8.23
2023-07-24T09:05:28.942Z,9.02
2023-07-24T09:07:57.354Z,8.68
2023-07-24T09:10:27.973Z,8.00
2023-07-24T09:12:57.772Z,8.52
2023-07-24T09:15:26.494Z,8.18
2023-07-24T09:17:55.951Z,8.95
2023-07-24T09:23:14.121Z,8.35
2023-07-24T09:25:46.044Z,8.35
2023-07-24T09:28:15.899Z,8.23
2023-07-24T09:30:53.456Z,8.43
2023-07-24T09:33:21.920Z,8.70
2023-07-24T09:36:00.123Z,8.35
2023-07-24T09:38:31.021Z,9.30
2023-07-24T09:41:00.069Z,9.48
2023-07-24T09:43:39.970Z,9.18
2023-07-24T09:46:11.800Z,8.55
2023-07-24T09:48:43.398Z,8.18
2023-07-24T09:51:31.501Z,8.30
2023-07-24T09:54:09.312Z,8.70
2023-07-24T09:56:49.068Z,8.38
2023-07-24T09:59:21.939Z,9.52
2023-07-24T10:01:51.173Z,8.75
2023-07-24T10:04:20.635Z,8.65
2023-07-24T10:06:49.572Z,8.98
2023-07-24T10:09:22.786Z,8.88
2023-07-24T10:11:50.891Z,8.80
2023-07-24T10:14:21.574Z,9.43
2023-07-24T10:16:50.885Z,9.85
2023-07-24T10:19:19.554Z,8.73
2023-07-24T10:21:48.968Z,8.93
2023-07-24T10:24:35.514Z,9.20
2023-07-24T10:27:10.141Z,8.38
2023-07-24T10:29:40.265Z,8.90
2023-07-24T10:32:21.294Z,8.75
2023-07-24T10:34:58.748Z,8.88
2023-07-24T10:37:35.314Z,9.55
2023-07-24T10:40:05.694Z,9.13
2023-07-24T10:42:35.329Z,7.85
2023-07-24T10:45:08.207Z,9.25
2023-07-24T10:47:37.368Z,9.00
2023-07-24T10:50:06.416Z,9.68
2023-07-24T10:52:35.782Z,8.32
2023-07-24T10:55:06.729Z,9.55
2023-07-24T10:57:35.885Z,8.73
2023-07-24T11:00:05.216Z,9.77
2023-07-24T11:02:33.814Z,9.32
2023-07-24T11:05:02.538Z,9.48
2023-07-24T11:07:37.310Z,9.52
2023-07-24T11:10:20.262Z,10.45
2023-07-24T11:15:18.542Z,8.07
2023-07-24T11:17:46.966Z,9.30
2023-07-24T11:20:16.665Z,9.77
2023-07-24T11:22:46.849Z,9.77
2023-07-24T11:25:16.929Z,9.25
2023-07-24T11:27:46.722Z,8.98
2023-07-24T11:30:21.400Z,9.77
2023-07-24T11:32:51.853Z,9.55
2023-07-24T11:35:23.058Z,10.38
2023-07-24T11:37:51.513Z,10.30
2023-07-24T11:40:23.111Z,11.00
2023-07-24T11:42:51.801Z,10.07
2023-07-24T11:45:20.570Z,11.32
2023-07-24T11:47:51.447Z,10.32
2023-07-24T11:50:20.224Z,9.27
2023-07-24T11:52:49.976Z,7.72
2023-07-24T11:55:19.545Z,7.85
2023-07-24T11:58:00.272Z,8.13
2023-07-24T12:00:29.233Z,7.65
2023-07-24T12:03:02.244Z,6.15
2023-07-24T12:05:30.843Z,5.03
2023-07-24T12:08:04.661Z,4.90
2023-07-24T12:10:33.468Z,5.55
2023-07-24T12:13:03.286Z,4.60
2023-07-24T12:15:32.716Z,5.28
2023-07-24T12:18:02.100Z,5.35
2023-07-24T12:20:31.536Z,4.53
2023-07-24T12:23:00.658Z,4.35
2023-07-24T12:25:29.216Z,5.03
2023-07-24T12:27:57.334Z,4.70
2023-07-24T12:30:28.419Z,4.53
2023-07-24T12:32:57.044Z,5.65
2023-07-24T12:35:25.462Z,5.43
2023-07-24T12:37:53.838Z,4.85
2023-07-24T12:40:22.839Z,5.28
2023-07-24T12:42:51.474Z,4.97
2023-07-24T12:45:20.017Z,5.07
2023-07-24T12:47:50.918Z,5.47
2023-07-24T12:50:20.196Z,5.35
2023-07-24T12:52:48.737Z,5.63
2023-07-24T12:55:17.472Z,6.78
2023-07-24T12:57:45.832Z,6.45
2023-07-24T13:00:15.221Z,6.20
2023-07-24T13:02:43.348Z,6.88
2023-07-24T13:05:13.220Z,6.60
2023-07-24T13:07:41.548Z,7.00
2023-07-24T13:10:12.526Z,6.47
2023-07-24T13:12:41.222Z,6.88
2023-07-24T13:15:09.968Z,6.30
2023-07-24T13:17:39.053Z,6.43
2023-07-24T13:20:09.277Z,6.47
2023-07-24T13:22:39.210Z,6.47
2023-07-24T13:25:09.688Z,6.05
2023-07-24T13:27:38.277Z,7.22
2023-07-24T13:30:07.292Z,6.63
2023-07-24T13:32:35.578Z,6.03
2023-07-24T13:35:03.805Z,6.10
2023-07-24T13:37:32.371Z,5.88
2023-07-24T13:40:01.893Z,6.30
2023-07-24T13:42:30.092Z,6.53
2023-07-24T13:44:58.225Z,6.43
2023-07-24T13:47:26.485Z,4.70
2023-07-24T13:49:55.001Z,5.78
2023-07-24T13:52:23.444Z,4.93
2023-07-24T13:54:51.721Z,5.88
2023-07-24T13:57:21.382Z,5.03
2023-07-24T13:59:49.724Z,5.07
2023-07-24T14:02:18.114Z,5.03
2023-07-24T14:04:46.705Z,5.05
2023-07-24T14:07:15.162Z,5.03
2023-07-24T14:09:43.839Z,5.38
2023-07-24T14:12:12.342Z,5.55
2023-07-24T14:14:42.133Z,4.93
2023-07-24T14:17:13.076Z,5.22
2023-07-24T14:19:44.945Z,5.28
2023-07-24T14:22:13.411Z,4.60
2023-07-24T14:24:41.665Z,5.30
2023-07-24T14:27:09.861Z,4.93
2023-07-24T14:29:38.206Z,5.07
2023-07-24T14:32:10.067Z,5.00
2023-07-24T14:34:42.829Z,5.03
2023-07-24T14:39:40.326Z,5.00
2023-07-24T14:42:08.620Z,5.03
2023-07-24T14:44:36.838Z,4.18
2023-07-24T14:47:05.122Z,4.95
2023-07-24T14:49:34.577Z,4.50
2023-07-24T14:52:02.880Z,4.53
2023-07-24T14:54:31.945Z,4.40
2023-07-24T14:57:07.614Z,4.60
2023-07-24T14:59:43.141Z,5.43
2023-07-24T15:02:11.410Z,4.78
2023-07-24T15:04:41.263Z,4.80
2023-07-24T15:07:09.807Z,4.85
2023-07-24T15:09:37.965Z,4.30
2023-07-24T15:12:06.778Z,4.85
2023-07-24T15:14:35.622Z,4.60
2023-07-24T15:17:03.863Z,4.63
2023-07-24T15:19:32.088Z,3.83
2023-07-24T15:22:01.894Z,3.88
2023-07-24T15:24:30.305Z,4.35
2023-07-24T15:26:58.719Z,4.65
2023-07-24T15:29:27.256Z,4.07
2023-07-24T15:31:55.682Z,3.80
2023-07-24T15:34:24.125Z,4.45
2023-07-24T15:36:52.220Z,4.40
2023-07-24T15:39:21.956Z,3.03
2023-07-24T15:41:50.399Z,4.18
2023-07-24T15:44:18.690Z,4.75
2023-07-24T15:46:48.195Z,5.10
2023-07-24T15:49:17.120Z,4.82
2023-07-24T15:51:45.893Z,4.85
2023-07-24T15:54:14.202Z,4.50
2023-07-24T15:56:43.734Z,4.85
2023-07-24T15:59:12.012Z,6.00
2023-07-24T16:01:40.319Z,5.63
2023-07-24T16:04:08.609Z,4.95
2023-07-24T16:06:37.171Z,5.60
2023-07-24T16:09:05.994Z,3.85
2023-07-24T16:11:34.688Z,4.53
2023-07-24T16:14:05.719Z,4.45
2023-07-24T16:16:34.184Z,4.55
2023-07-24T16:19:17.087Z,4.55
2023-07-24T16:21:47.258Z,3.83
2023-07-24T16:24:18.694Z,4.55
2023-07-24T16:26:47.636Z,5.45
2023-07-24T16:29:18.240Z,4.88
2023-07-24T16:31:46.602Z,5.03
2023-07-24T16:34:15.455Z,7.07
2023-07-24T16:36:43.897Z,5.15
2023-07-24T16:39:12.274Z,5.82
2023-07-24T16:41:40.565Z,5.53
2023-07-24T16:44:15.167Z,5.97
2023-07-24T16:46:45.282Z,4.78
2023-07-24T16:49:13.791Z,5.28
2023-07-24T16:51:42.039Z,7.88
2023-07-24T16:54:10.325Z,8.30
2023-07-24T16:56:38.551Z,7.40
2023-07-24T16:59:06.666Z,7.13
2023-07-24T17:01:36.181Z,6.45
2023-07-24T17:04:06.489Z,6.57
2023-07-24T17:06:36.545Z,5.63
2023-07-24T17:09:05.011Z,5.32
2023-07-24T17:11:33.584Z,4.75
2023-07-24T17:14:02.068Z,4.47
2023-07-24T17:16:31.120Z,5.88
2023-07-24T17:18:59.359Z,4.40
2023-07-24T17:21:29.227Z,5.25
2023-07-24T17:23:57.862Z,5.78
2023-07-24T17:26:26.939Z,5.78
2023-07-24T17:28:55.016Z,5.03
2023-07-24T17:31:23.380Z,5.28
2023-07-24T17:33:51.745Z,4.50
2023-07-24T17:36:20.157Z,4.50
2023-07-24T17:38:49.852Z,9.77
2023-07-24T17:41:18.052Z,5.38
2023-07-24T17:43:46.561Z,4.35
2023-07-24T17:46:17.642Z,3.90
2023-07-24T17:48:46.379Z,4.15
2023-07-24T17:51:14.498Z,4.10
2023-07-24T17:53:42.665Z,4.10
2023-07-24T17:56:13.710Z,4.10
2023-07-24T17:58:41.792Z,3.63
2023-07-24T18:01:11.353Z,4.10
2023-07-24T18:03:39.811Z,3.92
2023-07-24T18:06:08.100Z,2.78
2023-07-24T18:08:36.371Z,3.30
2023-07-24T18:11:04.947Z,3.05
2023-07-24T18:13:34.748Z,3.42
2023-07-24T18:16:03.117Z,3.13
2023-07-24T18:18:31.741Z,2.72
2023-07-24T18:21:08.293Z,2.95
2023-07-24T18:23:37.608Z,2.97
2023-07-24T18:26:05.803Z,3.15
2023-07-24T18:28:35.867Z,2.97
2023-07-24T18:31:04.086Z,2.95
2023-07-24T18:33:32.432Z,2.53
2023-07-24T18:36:00.563Z,3.10
2023-07-24T18:38:28.638Z,3.30
2023-07-24T18:40:56.876Z,3.25
2023-07-24T18:43:25.108Z,3.28
2023-07-24T18:45:56.990Z,2.97
2023-07-24T18:48:27.294Z,3.00
2023-07-24T18:50:55.526Z,2.83
2023-07-24T18:53:23.755Z,3.08
2023-07-24T18:55:53.781Z,2.55
2023-07-24T18:58:22.089Z,2.97
2023-07-24T19:00:50.653Z,3.03
2023-07-24T19:03:20.231Z,2.72
2023-07-24T19:05:49.721Z,4.38
2023-07-24T19:08:18.115Z,3.55
2023-07-24T19:10:46.298Z,3.20
2023-07-24T19:13:14.393Z,2.40
2023-07-24T19:15:42.892Z,3.72
2023-07-24T19:18:11.088Z,3.22
2023-07-24T19:20:40.548Z,2.97
2023-07-24T19:23:08.726Z,2.80
2023-07-24T19:25:37.767Z,3.00
2023-07-24T19:28:06.691Z,3.00
2023-07-24T19:30:35.252Z,3.20
2023-07-24T19:33:03.850Z,3.50
2023-07-24T19:35:32.052Z,3.42
2023-07-24T19:38:02.135Z,3.42
2023-07-24T19:40:30.493Z,3.15
2023-07-24T19:42:59.028Z,3.65
2023-07-24T19:45:29.118Z,3.92
2023-07-24T19:47:58.817Z,3.83
2023-07-24T19:50:27.226Z,3.60
2023-07-24T19:52:56.529Z,4.07
2023-07-24T19:55:26.191Z,3.80
2023-07-24T19:57:54.301Z,3.92
2023-07-24T20:00:24.060Z,4.00
2023-07-24T20:02:54.676Z,3.70
2023-07-24T20:05:23.990Z,3.63
2023-07-24T20:07:52.108Z,3.75
2023-07-24T20:10:20.336Z,3.15
2023-07-24T20:12:49.806Z,3.75
2023-07-24T20:15:18.317Z,3.70
2023-07-24T20:17:46.566Z,3.88
2023-07-24T20:20:15.211Z,4.40
2023-07-24T20:22:43.453Z,3.97
2023-07-24T20:25:11.734Z,3.92
2023-07-24T20:27:39.970Z,3.78
2023-07-24T20:30:10.814Z,3.67
2023-07-24T20:32:39.716Z,2.90
2023-07-24T20:35:09.027Z,2.58
2023-07-24T20:37:37.092Z,2.67
2023-07-24T20:40:05.740Z,2.75
2023-07-24T20:42:34.807Z,2.83
2023-07-24T20:45:02.985Z,3.05
2023-07-24T20:47:32.757Z,2.53
2023-07-24T20:50:01.473Z,2.78
2023-07-24T20:52:31.140Z,2.50
2023-07-24T20:54:59.296Z,2.97
2023-07-24T20:57:27.530Z,2.28
2023-07-24T20:59:56.192Z,3.42
2023-07-24T21:02:24.405Z,2.95
2023-07-24T21:04:56.382Z,3.13
2023-07-24T21:07:24.562Z,2.42
2023-07-24T21:09:52.660Z,2.53
2023-07-24T21:12:20.861Z,2.53
2023-07-24T21:14:49.515Z,2.75
2023-07-24T21:17:17.971Z,2.45
2023-07-24T21:19:46.114Z,2.53
2023-07-24T21:22:15.828Z,2.53
2023-07-24T21:24:44.178Z,3.00
2023-07-24T21:27:13.395Z,2.08
2023-07-24T21:29:41.912Z,2.88
2023-07-24T21:32:10.270Z,2.92
2023-07-24T21:34:38.579Z,2.10
2023-07-24T21:37:07.072Z,2.63
2023-07-24T21:39:36.699Z,2.88
2023-07-24T21:42:05.407Z,2.63
2023-07-24T21:44:33.585Z,2.00
2023-07-24T21:47:01.806Z,2.38
2023-07-24T21:49:32.388Z,3.22
2023-07-24T21:52:01.510Z,2.22
2023-07-24T21:54:29.760Z,2.50
2023-07-24T21:56:59.658Z,2.30
2023-07-24T21:59:27.832Z,2.72
2023-07-24T22:01:55.910Z,2.10
2023-07-24T22:04:24.283Z,2.55
2023-07-24T22:06:52.504Z,2.30
2023-07-24T22:09:20.648Z,2.35
2023-07-24T22:11:48.946Z,2.15
2023-07-24T22:14:18.423Z,2.45
2023-07-24T22:16:46.525Z,2.20
2023-07-24T22:19:16.148Z,1.95
2023-07-24T22:21:44.691Z,2.05
2023-07-24T22:24:13.090Z,2.20
2023-07-24T22:26:41.432Z,2.88
2023-07-24T22:29:09.618Z,2.38
2023-07-24T22:31:39.188Z,2.85
2023-07-24T22:34:07.405Z,2.70
2023-07-24T22:36:35.557Z,2.58
2023-07-24T22:39:06.541Z,2.95
2023-07-24T22:41:34.810Z,2.80
2023-07-24T22:44:02.833Z,2.72
2023-07-24T22:46:31.101Z,3.28
2023-07-24T22:49:00.801Z,2.55
2023-07-24T22:51:29.178Z,2.60
2023-07-24T22:53:57.752Z,3.40
2023-07-24T22:56:25.860Z,3.03
2023-07-24T22:59:21.737Z,2.95
2023-07-24T23:01:51.904Z,3.17
2023-07-24T23:04:24.083Z,3.17
2023-07-24T23:06:53.014Z,3.90
2023-07-24T23:09:21.163Z,3.15
2023-07-24T23:11:49.328Z,2.70
2023-07-24T23:14:17.577Z,2.97
2023-07-24T23:16:45.841Z,2.65
2023-07-24T23:19:14.081Z,2.60
2023-07-24T23:21:43.623Z,2.35
2023-07-24T23:24:11.817Z,2.78
2023-07-24T23:26:39.893Z,3.22
2023-07-24T23:29:08.022Z,2.60
2023-07-24T23:31:36.190Z,3.33
2023-07-24T23:34:04.316Z,3.03
2023-07-24T23:36:32.612Z,2.90
2023-07-24T23:39:02.156Z,2.38
2023-07-24T23:41:30.607Z,2.70
2023-07-24T23:43:59.158Z,2.58
2023-07-24T23:46:27.182Z,2.53
2023-07-24T23:48:55.229Z,2.88
2023-07-24T23:51:24.902Z,2.75
2023-07-24T23:53:52.987Z,3.35
2023-07-24T23:56:22.448Z,3.10
2023-07-24T23:58:50.463Z,3.55
